Time;durP1;ratioP1;P1;durP2;ratioP2;P2;SDS_P1;SDS_P2;PMS_P1;PMS_P2;Temp;Humidity;BMP_temperature;BMP_pressure;BME280_temperature;BME280_humidity;BME280_pressure;Samples;Min_cycle;Max_cycle;Signal;HPM_P1;HPM_P2
2023/09/01 00:00:21;;;;;;;;;0.00;0.00;;;;;;;;5013169;28;45290;-74
2023/09/01 00:02:46;;;;;;;;;1.00;1.00;;;;;;;;5015673;28;46961;-75
2023/09/01 00:05:11;;;;;;;;;1.00;1.00;;;;;;;;5015348;28;45441;-75
2023/09/01 00:07:36;;;;;;;;;1.00;1.00;;;;;;;;5016341;28;46009;-75
2023/09/01 00:10:03;;;;;;;;;2.00;1.67;;;;;;;;5015730;28;45300;-74
2023/09/01 00:12:28;;;;;;;;;1.00;1.00;;;;;;;;5018543;28;45332;-75
2023/09/01 00:14:53;;;;;;;;;1.67;1.67;;;;;;;;5003048;28;45408;-75
2023/09/01 00:17:19;;;;;;;;;4.00;1.00;;;;;;;;5018000;28;45210;-74
2023/09/01 00:19:44;;;;;;;;;3.67;1.67;;;;;;;;5016002;28;45415;-74
2023/09/01 00:22:09;;;;;;;;;3.00;1.00;;;;;;;;5023565;28;45401;-74
2023/09/01 00:24:35;;;;;;;;;2.33;1.33;;;;;;;;5017097;28;47186;-75
2023/09/01 00:27:00;;;;;;;;;1.33;1.33;;;;;;;;5019066;28;45431;-75
2023/09/01 00:29:26;;;;;;;;;1.00;1.00;;;;;;;;5015904;28;45150;-74
2023/09/01 00:31:51;;;;;;;;;2.67;2.00;;;;;;;;5018980;28;45212;-74
2023/09/01 00:34:16;;;;;;;;;3.33;2.33;;;;;;;;5010055;28;45471;-74
2023/09/01 00:36:41;;;;;;;;;2.33;1.67;;;;;;;;5019005;28;45221;-74
2023/09/01 00:39:08;;;;;;;;;3.33;1.33;;;;;;;;5015626;28;45250;-75
2023/09/01 00:41:33;;;;;;;;;2.67;2.67;;;;;;;;5021149;28;45200;-75
2023/09/01 00:43:58;;;;;;;;;0.67;0.67;;;;;;;;5013414;28;45407;-75
2023/09/01 00:46:24;;;;;;;;;3.00;1.00;;;;;;;;5021924;28;45209;-74
2023/09/01 00:48:49;;;;;;;;;3.33;2.00;;;;;;;;5019268;28;44856;-74
2023/09/01 00:51:14;;;;;;;;;1.33;1.00;;;;;;;;5015675;28;45323;-74
2023/09/01 00:53:40;;;;;;;;;0.67;0.67;;;;;;;;5017221;28;45447;-75
2023/09/01 00:56:05;;;;;;;;;1.33;1.33;;;;;;;;5017244;28;45438;-74
2023/09/01 00:58:31;;;;;;;;;1.00;0.00;;;;;;;;5014177;28;45451;-74
2023/09/01 01:00:58;;;;;;;;;0.67;0.67;;;;;;;;5014177;28;45377;-73
2023/09/01 01:03:24;;;;;;;;;1.00;1.00;;;;;;;;5014731;28;45309;-74
2023/09/01 01:05:55;;;;;;;;;3.67;1.33;;;;;;;;5015719;28;45651;-74
2023/09/01 01:08:27;;;;;;;;;0.67;0.67;;;;;;;;5014905;28;45442;-74
2023/09/01 01:10:56;;;;;;;;;4.33;1.00;;;;;;;;5016830;28;45373;-74
2023/09/01 01:13:21;;;;;;;;;0.67;0.67;;;;;;;;5010513;28;48183;-74
2023/09/01 01:15:47;;;;;;;;;1.00;1.00;;;;;;;;5014877;28;45425;-74
2023/09/01 01:18:13;;;;;;;;;1.00;1.00;;;;;;;;5016564;28;45318;-74
2023/09/01 01:20:42;;;;;;;;;0.33;0.33;;;;;;;;5017002;28;45557;-74
2023/09/01 01:23:17;;;;;;;;;0.67;0.67;;;;;;;;5014671;28;45212;-74
2023/09/01 01:25:46;;;;;;;;;1.67;1.67;;;;;;;;5010142;28;45468;-74
2023/09/01 01:28:12;;;;;;;;;3.00;1.33;;;;;;;;5015278;28;45391;-73
2023/09/01 01:30:38;;;;;;;;;3.00;2.00;;;;;;;;5015803;28;45250;-73
2023/09/01 01:33:03;;;;;;;;;0.67;0.67;;;;;;;;5015516;28;46162;-75
2023/09/01 01:35:31;;;;;;;;;2.33;2.33;;;;;;;;5014536;28;45410;-74
2023/09/01 01:38:29;;;;;;;;;2.00;2.00;;;;;;;;5016069;28;45344;-74
2023/09/01 01:41:02;;;;;;;;;1.67;1.67;;;;;;;;5003737;28;45442;-74
2023/09/01 01:43:29;;;;;;;;;3.33;0.67;;;;;;;;5013130;28;46276;-74
2023/09/01 01:45:55;;;;;;;;;1.00;1.00;;;;;;;;5015976;28;45456;-74
2023/09/01 01:48:20;;;;;;;;;2.00;2.00;;;;;;;;5013760;28;44932;-75
2023/09/01 01:50:46;;;;;;;;;1.67;1.00;;;;;;;;5013385;28;46764;-74
2023/09/01 01:53:13;;;;;;;;;1.67;1.67;;;;;;;;5014236;28;47039;-74
2023/09/01 01:55:38;;;;;;;;;1.33;1.33;;;;;;;;5014886;28;45452;-74
2023/09/01 01:58:05;;;;;;;;;0.67;0.67;;;;;;;;5018544;28;45260;-74
2023/09/01 02:00:30;;;;;;;;;0.00;0.00;;;;;;;;5016515;28;45471;-75
2023/09/01 02:02:55;;;;;;;;;2.67;0.67;;;;;;;;5019320;28;46119;-75
2023/09/01 02:05:21;;;;;;;;;3.00;2.00;;;;;;;;5017274;28;45184;-75
2023/09/01 02:07:46;;;;;;;;;1.33;1.33;;;;;;;;5019510;28;45294;-73
2023/09/01 02:10:12;;;;;;;;;0.67;0.67;;;;;;;;5020053;28;45204;-74
2023/09/01 02:12:37;;;;;;;;;2.00;2.00;;;;;;;;5019521;28;45313;-74
2023/09/01 02:15:03;;;;;;;;;1.33;1.33;;;;;;;;5013258;28;45415;-73
2023/09/01 02:17:28;;;;;;;;;2.33;1.67;;;;;;;;5021045;28;45300;-73
2023/09/01 02:19:55;;;;;;;;;1.00;1.00;;;;;;;;5021001;28;45125;-74
2023/09/01 02:22:20;;;;;;;;;1.67;0.67;;;;;;;;5024492;28;45392;-73
2023/09/01 02:24:45;;;;;;;;;3.33;1.00;;;;;;;;5013659;28;45351;-73
2023/09/01 02:27:10;;;;;;;;;3.00;0.67;;;;;;;;5012163;28;45458;-73
2023/09/01 02:29:36;;;;;;;;;2.00;1.00;;;;;;;;5011145;28;45456;-73
2023/09/01 02:32:02;;;;;;;;;1.67;0.67;;;;;;;;5021244;28;46558;-73
2023/09/01 02:34:28;;;;;;;;;1.00;1.00;;;;;;;;5014179;28;45325;-73
2023/09/01 02:36:53;;;;;;;;;2.33;2.00;;;;;;;;5020950;28;45625;-73
2023/09/01 02:39:18;;;;;;;;;1.67;1.00;;;;;;;;5012874;28;46390;-73
2023/09/01 02:41:44;;;;;;;;;0.67;0.67;;;;;;;;5020556;28;45348;-73
2023/09/01 02:44:10;;;;;;;;;1.00;0.67;;;;;;;;5013666;28;45514;-73
2023/09/01 02:46:35;;;;;;;;;2.33;1.00;;;;;;;;5021051;28;45296;-73
2023/09/01 02:49:00;;;;;;;;;0.67;0.67;;;;;;;;5015081;28;45495;-73
2023/09/01 02:51:25;;;;;;;;;1.33;1.33;;;;;;;;5020772;28;45355;-73
2023/09/01 02:53:51;;;;;;;;;2.67;1.67;;;;;;;;5018521;28;45246;-73
2023/09/01 02:56:17;;;;;;;;;2.00;1.00;;;;;;;;5019216;28;45231;-74
2023/09/01 02:58:42;;;;;;;;;1.67;1.00;;;;;;;;5017655;28;45232;-74
2023/09/01 03:01:08;;;;;;;;;1.33;1.33;;;;;;;;5018036;28;45926;-74
2023/09/01 03:03:34;;;;;;;;;2.00;1.00;;;;;;;;5016664;28;45307;-74
2023/09/01 03:05:59;;;;;;;;;0.33;0.33;;;;;;;;5011773;28;45227;-74
2023/09/01 03:08:25;;;;;;;;;1.67;1.67;;;;;;;;5019338;28;46411;-74
2023/09/01 03:10:51;;;;;;;;;2.33;1.00;;;;;;;;5013636;28;45374;-74
2023/09/01 03:13:16;;;;;;;;;0.67;0.67;;;;;;;;5018973;28;45217;-74
2023/09/01 03:15:41;;;;;;;;;0.67;0.67;;;;;;;;5015251;28;45373;-74
2023/09/01 03:18:08;;;;;;;;;2.33;0.67;;;;;;;;5020296;28;45277;-74
2023/09/01 03:20:34;;;;;;;;;0.33;0.00;;;;;;;;5023224;28;46302;-74
2023/09/01 03:22:59;;;;;;;;;2.00;1.00;;;;;;;;5024993;28;45296;-74
2023/09/01 03:25:24;;;;;;;;;2.33;0.67;;;;;;;;5004210;28;45389;-74
2023/09/01 03:27:49;;;;;;;;;2.67;2.00;;;;;;;;5013994;28;45261;-74
2023/09/01 03:30:15;;;;;;;;;1.33;1.00;;;;;;;;5004186;28;45313;-74
2023/09/01 03:32:40;;;;;;;;;0.33;0.33;;;;;;;;5014712;28;46062;-74
2023/09/01 03:35:06;;;;;;;;;1.67;0.67;;;;;;;;5011718;28;45241;-73
2023/09/01 03:37:31;;;;;;;;;1.33;0.67;;;;;;;;5015123;28;45263;-73
2023/09/01 03:39:57;;;;;;;;;2.67;0.67;;;;;;;;5011376;28;46132;-74
2023/09/01 03:42:22;;;;;;;;;1.00;1.00;;;;;;;;5015492;28;45206;-74
2023/09/01 03:44:47;;;;;;;;;2.00;1.00;;;;;;;;5013443;28;45309;-74
2023/09/01 03:47:12;;;;;;;;;0.67;0.67;;;;;;;;5015343;28;45498;-74
2023/09/01 03:49:38;;;;;;;;;1.67;1.33;;;;;;;;5012964;28;46097;-73
2023/09/01 03:52:03;;;;;;;;;1.00;1.00;;;;;;;;5015238;28;45589;-74
2023/09/01 03:54:28;;;;;;;;;0.67;0.67;;;;;;;;5006431;28;45268;-74
2023/09/01 03:56:54;;;;;;;;;1.00;1.00;;;;;;;;5014151;28;45243;-74
2023/09/01 03:59:19;;;;;;;;;2.00;1.33;;;;;;;;5014919;28;45474;-74
2023/09/01 04:01:45;;;;;;;;;1.67;1.67;;;;;;;;5017758;28;44823;-74
2023/09/01 04:04:11;;;;;;;;;1.33;1.33;;;;;;;;5010986;28;45711;-74
2023/09/01 04:06:36;;;;;;;;;0.67;0.67;;;;;;;;5014395;28;46735;-73
2023/09/01 04:09:01;;;;;;;;;0.33;0.33;;;;;;;;5014635;28;45348;-74
2023/09/01 04:11:27;;;;;;;;;1.33;1.00;;;;;;;;5018793;28;45375;-74
2023/09/01 04:13:55;;;;;;;;;1.00;1.00;;;;;;;;5015295;28;45407;-75
2023/09/01 04:16:20;;;;;;;;;2.00;2.00;;;;;;;;5019332;28;45505;-75
2023/09/01 04:18:46;;;;;;;;;1.33;1.33;;;;;;;;5014760;28;45471;-73
2023/09/01 04:21:11;;;;;;;;;1.67;0.67;;;;;;;;5015446;28;45625;-74
2023/09/01 04:23:39;;;;;;;;;1.67;1.67;;;;;;;;5015445;28;45408;-74
2023/09/01 04:26:04;;;;;;;;;1.67;1.67;;;;;;;;5014863;28;46176;-74
2023/09/01 04:28:29;;;;;;;;;2.00;1.33;;;;;;;;5014259;28;45390;-74
2023/09/01 04:30:55;;;;;;;;;1.67;1.67;;;;;;;;5013416;28;45253;-74
2023/09/01 04:33:20;;;;;;;;;0.67;0.67;;;;;;;;5014667;28;45473;-74
2023/09/01 04:35:54;;;;;;;;;2.33;1.00;;;;;;;;5014242;28;45372;-74
2023/09/01 04:38:19;;;;;;;;;2.33;1.67;;;;;;;;5015303;28;45513;-74
2023/09/01 04:40:53;;;;;;;;;2.33;0.67;;;;;;;;5014886;28;45368;-74
2023/09/01 04:43:18;;;;;;;;;1.67;0.67;;;;;;;;5016434;28;45404;-74
2023/09/01 04:45:44;;;;;;;;;2.67;1.67;;;;;;;;5009035;28;45349;-74
2023/09/01 04:48:10;;;;;;;;;1.67;1.67;;;;;;;;5015576;28;45313;-74
2023/09/01 04:50:35;;;;;;;;;1.67;1.67;;;;;;;;5009475;28;45569;-74
2023/09/01 04:53:00;;;;;;;;;2.00;1.00;;;;;;;;5016666;28;45481;-73
2023/09/01 04:55:25;;;;;;;;;2.67;1.00;;;;;;;;5009782;28;45333;-73
2023/09/01 04:57:51;;;;;;;;;0.67;0.67;;;;;;;;5015239;28;48333;-73
2023/09/01 05:00:16;;;;;;;;;3.00;2.00;;;;;;;;5002220;28;44785;-73
2023/09/01 05:02:42;;;;;;;;;0.67;0.67;;;;;;;;5017360;28;45422;-73
2023/09/01 05:05:08;;;;;;;;;3.33;1.00;;;;;;;;5015417;28;45534;-74
2023/09/01 05:07:33;;;;;;;;;0.00;0.00;;;;;;;;5017700;28;46217;-74
2023/09/01 05:09:58;;;;;;;;;1.00;1.00;;;;;;;;5006078;28;45520;-73
2023/09/01 05:12:23;;;;;;;;;0.67;0.67;;;;;;;;5000789;28;45340;-74
2023/09/01 05:14:48;;;;;;;;;0.00;0.00;;;;;;;;5005263;28;45530;-73
2023/09/01 05:17:14;;;;;;;;;1.67;1.67;;;;;;;;5018425;28;45252;-73
2023/09/01 05:19:39;;;;;;;;;1.00;1.00;;;;;;;;5015637;28;45545;-74
2023/09/01 05:22:04;;;;;;;;;0.67;0.67;;;;;;;;5021954;28;45308;-73
2023/09/01 05:24:29;;;;;;;;;2.67;1.00;;;;;;;;5007782;28;45335;-73
2023/09/01 05:26:54;;;;;;;;;2.00;1.00;;;;;;;;5018345;28;45589;-74
2023/09/01 05:29:20;;;;;;;;;2.00;1.67;;;;;;;;5009107;28;45241;-75
2023/09/01 05:31:45;;;;;;;;;0.67;0.67;;;;;;;;5020495;28;45370;-72
2023/09/01 05:34:10;;;;;;;;;0.67;0.67;;;;;;;;5016348;28;47606;-74
2023/09/01 05:36:36;;;;;;;;;3.33;1.00;;;;;;;;5013669;28;46433;-73
2023/09/01 05:39:01;;;;;;;;;1.00;1.00;;;;;;;;5018371;28;45292;-73
2023/09/01 05:41:26;;;;;;;;;0.67;0.67;;;;;;;;5014138;28;45769;-75
2023/09/01 05:43:51;;;;;;;;;1.67;1.67;;;;;;;;5014211;28;45550;-73
2023/09/01 05:46:16;;;;;;;;;0.67;0.67;;;;;;;;5015224;28;45371;-74
2023/09/01 05:48:42;;;;;;;;;1.33;0.33;;;;;;;;5014421;28;45362;-72
2023/09/01 05:51:07;;;;;;;;;0.67;0.67;;;;;;;;5019124;28;45737;-74
2023/09/01 05:53:32;;;;;;;;;0.33;0.33;;;;;;;;5015119;28;45462;-75
2023/09/01 05:55:57;;;;;;;;;0.67;0.67;;;;;;;;5011474;28;45383;-73
2023/09/01 05:58:22;;;;;;;;;1.00;1.00;;;;;;;;5012825;28;45228;-72
2023/09/01 06:00:49;;;;;;;;;1.33;1.00;;;;;;;;5014777;28;45231;-71
2023/09/01 06:03:14;;;;;;;;;2.33;1.00;;;;;;;;5006433;28;45402;-74
2023/09/01 06:05:39;;;;;;;;;1.33;0.00;;;;;;;;5018732;28;45310;-74
2023/09/01 06:08:05;;;;;;;;;0.67;0.67;;;;;;;;5013977;28;45510;-74
2023/09/01 06:10:30;;;;;;;;;1.33;1.33;;;;;;;;5021150;28;45298;-73
2023/09/01 06:12:56;;;;;;;;;0.33;0.33;;;;;;;;5017693;28;45599;-73
2023/09/01 06:15:21;;;;;;;;;0.67;0.67;;;;;;;;5012288;28;46228;-74
2023/09/01 06:17:46;;;;;;;;;3.33;1.00;;;;;;;;5019131;28;45544;-74
2023/09/01 06:20:11;;;;;;;;;0.67;0.67;;;;;;;;5015566;28;45541;-73
2023/09/01 06:22:37;;;;;;;;;2.00;1.67;;;;;;;;5005414;28;45237;-74
2023/09/01 06:25:03;;;;;;;;;0.67;0.67;;;;;;;;5013148;28;45742;-74
2023/09/01 06:27:28;;;;;;;;;0.67;0.67;;;;;;;;5013674;28;45336;-73
2023/09/01 06:29:56;;;;;;;;;1.00;0.67;;;;;;;;5012485;28;45642;-74
2023/09/01 06:32:21;;;;;;;;;0.67;0.67;;;;;;;;5009033;28;45972;-74
2023/09/01 06:34:46;;;;;;;;;1.00;1.00;;;;;;;;5009552;28;46283;-73
2023/09/01 06:37:11;;;;;;;;;1.67;1.67;;;;;;;;5008943;28;45238;-74
2023/09/01 06:39:37;;;;;;;;;1.67;0.67;;;;;;;;5014818;28;45277;-75
2023/09/01 06:42:02;;;;;;;;;0.67;0.67;;;;;;;;5007549;28;45450;-74
2023/09/01 06:44:27;;;;;;;;;0.00;0.00;;;;;;;;5010299;28;46880;-74
2023/09/01 06:46:52;;;;;;;;;0.67;0.67;;;;;;;;5008736;28;45392;-74
2023/09/01 06:49:18;;;;;;;;;2.00;1.67;;;;;;;;5012452;28;45227;-74
2023/09/01 06:51:43;;;;;;;;;1.67;1.33;;;;;;;;5009191;28;45395;-74
2023/09/01 06:54:08;;;;;;;;;2.00;1.00;;;;;;;;5013356;28;45332;-74
2023/09/01 06:56:34;;;;;;;;;3.67;1.00;;;;;;;;5005195;28;45259;-74
2023/09/01 06:58:59;;;;;;;;;1.67;1.67;;;;;;;;5009251;28;45210;-75
2023/09/01 07:01:27;;;;;;;;;1.33;1.00;;;;;;;;5003480;28;45488;-73
2023/09/01 07:03:53;;;;;;;;;1.00;1.00;;;;;;;;5009130;28;46076;-73
2023/09/01 07:06:18;;;;;;;;;2.00;0.67;;;;;;;;5015050;28;45392;-74
2023/09/01 07:08:43;;;;;;;;;0.67;0.00;;;;;;;;5017004;28;45450;-78
2023/09/01 07:11:10;;;;;;;;;1.67;0.33;;;;;;;;5010521;28;45617;-76
2023/09/01 07:13:36;;;;;;;;;0.67;0.67;;;;;;;;5009457;28;46271;-73
2023/09/01 07:16:01;;;;;;;;;0.67;0.67;;;;;;;;5007975;28;45212;-73
2023/09/01 07:18:26;;;;;;;;;0.00;0.00;;;;;;;;5013223;28;45446;-72
2023/09/01 07:20:56;;;;;;;;;1.67;0.33;;;;;;;;5006708;28;45360;-73
2023/09/01 07:23:21;;;;;;;;;0.67;0.67;;;;;;;;5006894;28;47860;-73
2023/09/01 07:25:47;;;;;;;;;2.67;0.67;;;;;;;;5004267;28;45340;-78
2023/09/01 07:28:12;;;;;;;;;0.00;0.00;;;;;;;;5017436;28;45673;-79
2023/09/01 07:30:38;;;;;;;;;1.00;0.67;;;;;;;;5015494;28;45391;-77
2023/09/01 07:33:03;;;;;;;;;1.00;1.00;;;;;;;;5014664;28;47642;-75
2023/09/01 07:35:28;;;;;;;;;0.67;0.67;;;;;;;;5010965;28;45768;-76
2023/09/01 07:37:55;;;;;;;;;1.00;1.00;;;;;;;;5005024;28;45338;-76
2023/09/01 07:40:20;;;;;;;;;3.00;0.33;;;;;;;;5011439;28;46503;-76
2023/09/01 07:42:45;;;;;;;;;1.00;1.00;;;;;;;;5004570;28;46604;-75
2023/09/01 07:45:10;;;;;;;;;1.00;1.00;;;;;;;;5005704;28;45253;-76
2023/09/01 07:47:37;;;;;;;;;0.67;0.67;;;;;;;;5006144;28;45341;-75
2023/09/01 07:50:03;;;;;;;;;0.00;0.00;;;;;;;;5010485;28;45451;-75
2023/09/01 07:52:29;;;;;;;;;3.00;2.00;;;;;;;;5015259;28;45207;-77
2023/09/01 07:54:54;;;;;;;;;0.00;0.00;;;;;;;;5007767;28;45412;-75
2023/09/01 07:57:19;;;;;;;;;0.67;0.67;;;;;;;;5015404;28;45218;-74
2023/09/01 07:59:45;;;;;;;;;0.67;0.67;;;;;;;;5004158;28;45403;-75
2023/09/01 08:02:10;;;;;;;;;1.00;1.00;;;;;;;;5006261;28;46345;-75
2023/09/01 08:04:35;;;;;;;;;2.00;0.67;;;;;;;;5009776;28;45476;-75
2023/09/01 08:07:00;;;;;;;;;2.00;0.25;;;;;;;;5011910;28;45270;-75
2023/09/01 08:09:26;;;;;;;;;0.00;0.00;;;;;;;;5012629;28;45756;-74
2023/09/01 08:11:51;;;;;;;;;0.00;0.00;;;;;;;;5009953;28;46287;-75
2023/09/01 08:14:16;;;;;;;;;1.00;1.00;;;;;;;;5002659;28;45348;-75
2023/09/01 08:16:42;;;;;;;;;0.25;0.25;;;;;;;;5012146;28;45397;-74
2023/09/01 08:19:07;;;;;;;;;1.33;0.67;;;;;;;;5008399;28;45734;-74
2023/09/01 08:21:33;;;;;;;;;2.75;0.75;;;;;;;;5010894;28;46361;-75
2023/09/01 08:23:58;;;;;;;;;0.00;0.00;;;;;;;;5012767;28;45328;-75
2023/09/01 08:26:24;;;;;;;;;4.00;0.50;;;;;;;;5014505;28;45329;-75
2023/09/01 08:28:49;;;;;;;;;1.00;1.00;;;;;;;;5011623;28;44920;-75
2023/09/01 08:31:14;;;;;;;;;1.00;1.00;;;;;;;;5017096;28;45460;-75
2023/09/01 08:33:41;;;;;;;;;1.00;1.00;;;;;;;;5010760;28;45328;-75
2023/09/01 08:36:07;;;;;;;;;0.00;0.00;;;;;;;;5016423;28;45232;-75
2023/09/01 08:38:32;;;;;;;;;0.00;0.00;;;;;;;;5013074;28;46272;-75
2023/09/01 08:41:03;;;;;;;;;0.25;0.25;;;;;;;;5009327;28;46629;-75
2023/09/01 08:43:30;;;;;;;;;1.25;0.25;;;;;;;;5011865;28;45307;-75
2023/09/01 08:45:55;;;;;;;;;0.00;0.00;;;;;;;;5015347;28;45328;-75
2023/09/01 08:48:21;;;;;;;;;1.00;0.75;;;;;;;;5012588;28;45373;-75
2023/09/01 08:50:46;;;;;;;;;0.00;0.00;;;;;;;;5010164;28;45256;-75
2023/09/01 08:53:12;;;;;;;;;3.00;0.75;;;;;;;;5001400;28;45248;-74
2023/09/01 08:55:37;;;;;;;;;1.25;1.00;;;;;;;;5004245;28;45312;-75
2023/09/01 08:58:03;;;;;;;;;1.00;1.00;;;;;;;;5007626;28;45380;-80
2023/09/01 09:00:29;;;;;;;;;0.00;0.00;;;;;;;;5009911;28;48304;-75
2023/09/01 09:02:54;;;;;;;;;1.00;1.00;;;;;;;;5007999;28;45290;-74
2023/09/01 09:05:20;;;;;;;;;0.75;0.75;;;;;;;;5015086;28;45639;-75
2023/09/01 09:07:56;;;;;;;;;0.25;0.25;;;;;;;;5012843;28;45440;-75
2023/09/01 09:10:31;;;;;;;;;1.00;1.00;;;;;;;;5012603;28;45615;-75
2023/09/01 09:12:56;;;;;;;;;1.33;1.00;;;;;;;;5010729;28;45447;-75
2023/09/01 09:15:22;;;;;;;;;0.75;0.75;;;;;;;;5013782;28;45356;-74
2023/09/01 09:17:48;;;;;;;;;0.00;0.00;;;;;;;;5003171;28;45368;-75
2023/09/01 09:20:14;;;;;;;;;0.00;0.00;;;;;;;;5005428;28;45391;-74
2023/09/01 09:22:49;;;;;;;;;1.00;1.00;;;;;;;;5006581;28;45660;-75
2023/09/01 09:25:28;;;;;;;;;0.00;0.00;;;;;;;;5006357;28;45453;-74
2023/09/01 09:27:54;;;;;;;;;2.00;0.75;;;;;;;;5007492;28;45430;-74
2023/09/01 09:30:19;;;;;;;;;0.00;0.00;;;;;;;;5012703;28;47584;-74
2023/09/01 09:32:45;;;;;;;;;0.25;0.25;;;;;;;;5007812;28;45198;-74
2023/09/01 09:35:12;;;;;;;;;1.00;1.00;;;;;;;;5007338;28;45232;-74
2023/09/01 09:37:38;;;;;;;;;1.00;1.00;;;;;;;;5007639;28;45332;-74
2023/09/01 09:40:22;;;;;;;;;2.00;2.00;;;;;;;;5007032;28;46207;-74
2023/09/01 09:42:47;;;;;;;;;0.25;0.25;;;;;;;;5002334;28;45264;-74
2023/09/01 09:45:24;;;;;;;;;0.75;0.75;;;;;;;;5001149;28;45532;-73
2023/09/01 09:47:49;;;;;;;;;1.00;1.00;;;;;;;;5002438;28;45277;-73
2023/09/01 09:50:16;;;;;;;;;0.25;0.25;;;;;;;;5010331;28;47186;-73
2023/09/01 09:52:42;;;;;;;;;1.40;0.80;;;;;;;;5014298;28;45352;-73
2023/09/01 09:55:10;;;;;;;;;0.25;0.25;;;;;;;;5009789;28;45490;-73
2023/09/01 09:57:38;;;;;;;;;1.00;0.00;;;;;;;;5010432;28;45224;-73
2023/09/01 10:00:08;;;;;;;;;8.50;4.75;;;;;;;;5004654;28;46935;-73
2023/09/01 10:02:37;;;;;;;;;0.00;0.00;;;;;;;;5013346;28;45249;-73
2023/09/01 10:05:04;;;;;;;;;0.50;0.50;;;;;;;;5012542;28;45479;-73
2023/09/01 10:07:30;;;;;;;;;1.00;1.00;;;;;;;;5012557;28;45347;-75
2023/09/01 10:09:55;;;;;;;;;0.25;0.25;;;;;;;;5008651;28;45437;-74
2023/09/01 10:12:21;;;;;;;;;0.75;0.75;;;;;;;;5017686;28;45391;-74
2023/09/01 10:14:47;;;;;;;;;1.00;1.00;;;;;;;;5005608;28;45349;-74
2023/09/01 10:17:13;;;;;;;;;0.75;0.25;;;;;;;;5018137;28;45166;-75
2023/09/01 10:19:38;;;;;;;;;1.00;1.00;;;;;;;;5014702;28;45809;-73
2023/09/01 10:22:03;;;;;;;;;0.00;0.00;;;;;;;;5020433;28;44888;-73
2023/09/01 10:24:29;;;;;;;;;0.00;0.00;;;;;;;;5014344;28;45617;-72
2023/09/01 10:27:07;;;;;;;;;0.25;0.25;;;;;;;;5020910;28;45285;-74
2023/09/01 10:29:36;;;;;;;;;1.50;0.00;;;;;;;;5018502;28;46120;-74
2023/09/01 10:32:15;;;;;;;;;0.20;0.20;;;;;;;;5017464;28;45344;-73
2023/09/01 10:34:40;;;;;;;;;1.50;0.75;;;;;;;;5010101;28;45374;-74
2023/09/01 10:37:26;;;;;;;;;1.00;1.00;;;;;;;;5019836;28;45386;-74
2023/09/01 10:39:51;;;;;;;;;1.50;0.00;;;;;;;;5011404;28;45494;-73
2023/09/01 10:42:16;;;;;;;;;1.50;1.25;;;;;;;;5004489;28;45257;-74
2023/09/01 10:44:44;;;;;;;;;0.00;0.00;;;;;;;;5015117;28;46835;-74
2023/09/01 10:47:28;;;;;;;;;0.00;0.00;;;;;;;;5016264;28;45767;-76
2023/09/01 10:49:54;;;;;;;;;0.25;0.00;;;;;;;;5015474;28;46633;-75
2023/09/01 10:52:19;;;;;;;;;1.50;0.75;;;;;;;;5019880;28;45268;-75
2023/09/01 10:54:44;;;;;;;;;1.25;1.25;;;;;;;;5007018;28;45243;-73
2023/09/01 10:57:10;;;;;;;;;0.00;0.00;;;;;;;;5017645;28;44949;-75
2023/09/01 10:59:36;;;;;;;;;0.00;0.00;;;;;;;;5015451;28;47972;-75
2023/09/01 11:02:20;;;;;;;;;0.25;0.25;;;;;;;;5016218;28;45626;-74
2023/09/01 11:04:46;;;;;;;;;1.00;1.00;;;;;;;;5008818;28;45313;-75
2023/09/01 11:07:12;;;;;;;;;0.00;0.00;;;;;;;;5019569;28;45443;-75
2023/09/01 11:09:38;;;;;;;;;1.00;1.00;;;;;;;;5014806;28;46107;-75
2023/09/01 11:12:07;;;;;;;;;1.40;0.80;;;;;;;;5019996;28;45213;-75
2023/09/01 11:14:34;;;;;;;;;0.00;0.00;;;;;;;;5011405;28;45411;-74
2023/09/01 11:17:05;;;;;;;;;0.00;0.00;;;;;;;;5013676;28;45250;-75
2023/09/01 11:19:32;;;;;;;;;0.20;0.20;;;;;;;;5008114;28;45467;-74
2023/09/01 11:21:57;;;;;;;;;0.80;0.00;;;;;;;;5019378;28;45474;-74
2023/09/01 11:24:22;;;;;;;;;0.00;0.00;;;;;;;;5011993;28;45441;-73
2023/09/01 11:26:48;;;;;;;;;0.00;0.00;;;;;;;;5020028;28;45642;-74
2023/09/01 11:29:14;;;;;;;;;0.00;0.00;;;;;;;;5013128;28;45472;-74
2023/09/01 11:31:40;;;;;;;;;0.00;0.00;;;;;;;;5020277;28;45340;-74
2023/09/01 11:34:05;;;;;;;;;0.20;0.20;;;;;;;;5013453;28;45388;-74
2023/09/01 11:36:31;;;;;;;;;2.00;1.00;;;;;;;;5012668;28;45404;-75
2023/09/01 11:38:56;;;;;;;;;1.25;1.25;;;;;;;;5013837;28;45462;-74
2023/09/01 11:41:22;;;;;;;;;0.00;0.00;;;;;;;;5013644;28;45365;-76
2023/09/01 11:43:47;;;;;;;;;0.00;0.00;;;;;;;;5005365;28;45349;-75
2023/09/01 11:46:13;;;;;;;;;1.50;0.25;;;;;;;;5013537;28;45345;-75
2023/09/01 11:48:38;;;;;;;;;0.00;0.00;;;;;;;;5010785;28;47879;-76
2023/09/01 11:51:10;;;;;;;;;1.25;1.00;;;;;;;;5005873;28;45595;-76
2023/09/01 11:53:35;;;;;;;;;0.20;0.20;;;;;;;;5012358;28;45495;-75
2023/09/01 11:56:15;;;;;;;;;0.00;0.00;;;;;;;;5015908;28;45896;-78
2023/09/01 11:58:40;;;;;;;;;0.00;0.00;;;;;;;;5014287;28;45570;-77
2023/09/01 12:01:10;;;;;;;;;0.00;0.00;;;;;;;;5016661;28;45631;-76
2023/09/01 12:03:37;;;;;;;;;0.00;0.00;;;;;;;;5015477;28;45341;-76
2023/09/01 12:06:13;;;;;;;;;0.00;0.00;;;;;;;;5017681;28;46290;-77
2023/09/01 12:08:38;;;;;;;;;0.00;0.00;;;;;;;;5016828;28;46225;-76
2023/09/01 12:11:06;;;;;;;;;0.25;0.00;;;;;;;;5017520;28;45221;-77
2023/09/01 12:13:31;;;;;;;;;0.80;0.00;;;;;;;;5015616;28;46359;-76
2023/09/01 12:15:56;;;;;;;;;0.25;0.00;;;;;;;;5011231;28;45579;-76
2023/09/01 12:18:25;;;;;;;;;0.00;0.00;;;;;;;;5015104;28;45332;-76
2023/09/01 12:20:50;;;;;;;;;0.00;0.00;;;;;;;;5011393;28;45224;-76
2023/09/01 12:23:23;;;;;;;;;2.00;0.00;;;;;;;;5015745;28;45658;-76
2023/09/01 12:25:51;;;;;;;;;0.00;0.00;;;;;;;;5004403;28;46501;-76
2023/09/01 12:28:16;;;;;;;;;0.00;0.00;;;;;;;;5007752;28;45530;-77
2023/09/01 12:30:41;;;;;;;;;0.00;0.00;;;;;;;;5009208;28;45435;-77
2023/09/01 12:33:06;;;;;;;;;1.00;0.25;;;;;;;;5016489;28;45229;-77
2023/09/01 12:35:31;;;;;;;;;1.00;0.00;;;;;;;;5004995;28;45322;-76
2023/09/01 12:37:57;;;;;;;;;1.00;0.00;;;;;;;;5003658;28;46189;-77
2023/09/01 12:40:22;;;;;;;;;1.00;1.00;;;;;;;;5015179;28;45355;-76
2023/09/01 12:42:47;;;;;;;;;0.25;0.25;;;;;;;;5016827;28;45300;-77
2023/09/01 12:45:12;;;;;;;;;0.00;0.00;;;;;;;;5015873;28;45226;-77
2023/09/01 12:47:38;;;;;;;;;0.00;0.00;;;;;;;;5018427;28;45950;-76
2023/09/01 12:50:03;;;;;;;;;0.00;0.00;;;;;;;;5002772;28;45264;-76
2023/09/01 12:52:28;;;;;;;;;1.00;0.25;;;;;;;;5013158;28;46094;-77
2023/09/01 12:54:53;;;;;;;;;0.00;0.00;;;;;;;;5003562;28;45734;-75
2023/09/01 12:57:19;;;;;;;;;0.00;0.00;;;;;;;;5009486;28;45440;-75
2023/09/01 12:59:44;;;;;;;;;0.00;0.00;;;;;;;;5012684;28;45332;-76
2023/09/01 13:02:09;;;;;;;;;2.00;0.25;;;;;;;;5003514;28;45469;-75
2023/09/01 13:04:34;;;;;;;;;0.50;0.00;;;;;;;;5010220;28;47169;-75
2023/09/01 13:06:59;;;;;;;;;1.75;0.00;;;;;;;;5017410;28;45444;-75
2023/09/01 13:09:24;;;;;;;;;1.75;0.25;;;;;;;;5012163;28;45382;-75
2023/09/01 13:11:50;;;;;;;;;1.25;0.25;;;;;;;;5011037;28;45505;-76
2023/09/01 13:14:15;;;;;;;;;0.75;0.25;;;;;;;;5009085;28;45598;-78
2023/09/01 13:16:40;;;;;;;;;1.00;1.00;;;;;;;;5013038;28;47091;-80
2023/09/01 13:19:05;;;;;;;;;0.00;0.00;;;;;;;;5012808;28;45215;-79
2023/09/01 13:21:30;;;;;;;;;0.50;0.25;;;;;;;;5018284;28;45266;-79
2023/09/01 13:23:56;;;;;;;;;2.00;1.00;;;;;;;;5007929;28;45260;-78
2023/09/01 13:26:21;;;;;;;;;0.25;0.25;;;;;;;;5015891;28;45213;-78
2023/09/01 13:28:47;;;;;;;;;0.50;0.50;;;;;;;;5013056;28;45908;-76
2023/09/01 13:31:13;;;;;;;;;1.50;0.50;;;;;;;;5007004;28;45416;-78
2023/09/01 13:33:40;;;;;;;;;1.25;1.00;;;;;;;;5014126;28;45562;-77
2023/09/01 13:36:06;;;;;;;;;3.00;1.25;;;;;;;;5013697;28;45473;-78
2023/09/01 13:38:31;;;;;;;;;0.00;0.00;;;;;;;;5015893;28;45312;-78
2023/09/01 13:40:56;;;;;;;;;2.00;2.00;;;;;;;;5015907;28;45377;-80
2023/09/01 13:43:21;;;;;;;;;3.50;1.25;;;;;;;;5013768;28;45295;-79
2023/09/01 13:45:46;;;;;;;;;3.25;1.50;;;;;;;;5008354;28;46530;-79
2023/09/01 13:48:12;;;;;;;;;0.00;0.00;;;;;;;;5016222;28;45292;-80
2023/09/01 13:50:37;;;;;;;;;0.75;0.75;;;;;;;;5010971;28;45284;-77
2023/09/01 13:53:02;;;;;;;;;2.50;1.50;;;;;;;;5018002;28;45182;-78
2023/09/01 13:55:27;;;;;;;;;3.50;1.25;;;;;;;;5013839;28;46409;-78
2023/09/01 13:57:52;;;;;;;;;1.00;1.00;;;;;;;;5018878;28;45509;-77
2023/09/01 14:00:18;;;;;;;;;2.00;2.00;;;;;;;;5007392;28;45423;-78
2023/09/01 14:02:43;;;;;;;;;3.50;3.50;;;;;;;;5020589;28;45271;-77
2023/09/01 14:05:08;;;;;;;;;1.00;1.00;;;;;;;;5009207;28;46735;-76
2023/09/01 14:07:33;;;;;;;;;3.00;1.00;;;;;;;;5020955;28;45210;-76
2023/09/01 14:09:59;;;;;;;;;1.50;1.50;;;;;;;;5019020;28;45468;-76
2023/09/01 14:12:24;;;;;;;;;4.50;3.00;;;;;;;;5020707;28;45416;-78
2023/09/01 14:14:49;;;;;;;;;2.00;0.00;;;;;;;;5017031;28;47625;-77
2023/09/01 14:17:14;;;;;;;;;1.00;1.00;;;;;;;;5019316;28;45222;-76
2023/09/01 14:19:39;;;;;;;;;0.50;0.00;;;;;;;;5010948;28;45662;-75
2023/09/01 14:22:05;;;;;;;;;1.50;1.50;;;;;;;;5021527;28;45422;-79
2023/09/01 14:24:30;;;;;;;;;0.50;0.50;;;;;;;;5014804;28;46285;-74
2023/09/01 14:26:55;;;;;;;;;0.25;0.25;;;;;;;;5020359;28;45217;-75
2023/09/01 14:29:20;;;;;;;;;2.25;1.50;;;;;;;;5012443;28;45264;-75
2023/09/01 14:31:46;;;;;;;;;2.50;1.75;;;;;;;;5022502;28;45174;-75
2023/09/01 14:34:12;;;;;;;;;2.00;2.00;;;;;;;;5015259;28;46160;-75
2023/09/01 14:36:38;;;;;;;;;0.00;0.00;;;;;;;;5016452;28;45430;-75